Time;durP1;ratioP1;P1;durP2;ratioP2;P2;SDS_P1;SDS_P2;PMS_P1;PMS_P2;Temp;Humidity;BMP_temperature;BMP_pressure;BME280_temperature;BME280_humidity;BME280_pressure;Samples;Min_cycle;Max_cycle;Signal;HPM_P1;HPM_P2
2024/01/28 00:00:01;;;;;;;12.70;5.80;;;;;;;4.04;62.04;101417.66;105868;1257;65387;-60
2024/01/28 00:02:38;;;;;;;11.80;5.60;;;;;;;4.02;61.98;101421.88;105590;1251;61304;-61
2024/01/28 00:05:06;;;;;;;11.10;5.40;;;;;;;4.04;62.00;101422.34;105421;1255;62616;-60
2024/01/28 00:07:34;;;;;;;11.40;5.60;;;;;;;4.07;61.93;101426.77;105795;1255;60562;-61
2024/01/28 00:10:01;;;;;;;12.20;4.80;;;;;;;4.04;62.19;101425.98;105237;1251;60447;-62
2024/01/28 00:12:30;;;;;;;11.70;5.90;;;;;;;3.99;62.23;101428.96;105538;1251;64935;-61
2024/01/28 00:14:57;;;;;;;11.90;4.90;;;;;;;3.97;62.29;101430.41;105946;1253;61516;-58
2024/01/28 00:17:25;;;;;;;10.00;3.90;;;;;;;4.01;62.25;101434.45;105390;1251;63777;-60
2024/01/28 00:19:53;;;;;;;13.70;5.40;;;;;;;4.02;62.33;101436.34;106199;1254;60565;-60
2024/01/28 00:22:21;;;;;;;9.70;4.30;;;;;;;3.99;62.29;101438.52;105366;1257;60351;-58
2024/01/28 00:24:50;;;;;;;11.80;4.80;;;;;;;3.96;62.52;101437.73;105362;1252;65113;-59
2024/01/28 00:27:18;;;;;;;14.70;5.60;;;;;;;3.97;62.54;101441.70;106067;1251;61459;-60
2024/01/28 00:29:45;;;;;;;11.80;4.40;;;;;;;4.01;62.41;101439.66;105556;1255;62473;-57
2024/01/28 00:32:13;;;;;;;11.40;4.80;;;;;;;4.02;62.44;101439.09;105487;1257;60447;-58
2024/01/28 00:34:41;;;;;;;12.30;5.10;;;;;;;4.03;62.42;101438.88;105506;1251;60524;-57
2024/01/28 00:37:12;;;;;;;10.30;6.10;;;;;;;4.01;62.49;101443.12;105395;1252;63658;-56
2024/01/28 00:39:40;;;;;;;9.60;4.80;;;;;;;3.99;62.44;101444.39;105255;1257;61422;-56
2024/01/28 00:42:07;;;;;;;13.00;5.70;;;;;;;4.03;62.40;101444.77;105537;1254;63695;-57
2024/01/28 00:44:35;;;;;;;15.90;7.70;;;;;;;4.07;62.32;101447.06;105155;1251;60451;-56
2024/01/28 00:47:03;;;;;;;14.20;6.40;;;;;;;4.10;62.27;101449.05;106806;1251;60367;-57
2024/01/28 00:49:30;;;;;;;12.40;5.40;;;;;;;4.09;62.28;101452.20;105492;1255;64946;-58
2024/01/28 00:52:00;;;;;;;12.00;4.50;;;;;;;4.07;62.35;101454.38;106678;1251;61787;-57
2024/01/28 00:54:27;;;;;;;15.20;4.60;;;;;;;4.10;62.29;101461.38;105899;1253;63710;-56
2024/01/28 00:56:56;;;;;;;11.80;5.10;;;;;;;4.15;62.16;101467.77;105432;1253;60781;-59
2024/01/28 00:59:24;;;;;;;11.50;5.00;;;;;;;4.17;62.17;101474.30;105222;1257;60881;-59
2024/01/28 01:01:52;;;;;;;13.10;4.90;;;;;;;4.17;62.21;101473.11;105436;1257;65024;-60
2024/01/28 01:04:20;;;;;;;15.60;6.60;;;;;;;4.15;62.09;101473.89;105503;1251;60581;-60
2024/01/28 01:06:49;;;;;;;14.20;6.30;;;;;;;4.14;62.04;101474.08;105450;1254;64292;-60
2024/01/28 01:09:17;;;;;;;15.30;6.40;;;;;;;4.18;61.87;101478.63;106970;1254;60437;-60
2024/01/28 01:11:45;;;;;;;13.70;5.10;;;;;;;4.21;61.88;101481.46;107181;1251;61094;-60
2024/01/28 01:14:12;;;;;;;13.40;5.10;;;;;;;4.22;61.91;101479.69;105150;1258;63651;-61
2024/01/28 01:16:40;;;;;;;11.90;4.80;;;;;;;4.21;62.01;101480.78;105588;1256;60463;-60
2024/01/28 01:19:07;;;;;;;14.60;6.70;;;;;;;4.18;62.06;101484.54;105286;1251;62430;-59
2024/01/28 01:21:35;;;;;;;15.20;5.20;;;;;;;4.12;62.04;101488.39;105816;1253;60559;-60
2024/01/28 01:24:03;;;;;;;16.50;6.30;;;;;;;4.10;62.21;101494.19;105842;1257;60348;-60
2024/01/28 01:26:31;;;;;;;14.70;6.00;;;;;;;4.13;62.19;101495.81;105421;1251;64969;-59
2024/01/28 01:28:59;;;;;;;11.50;6.00;;;;;;;4.12;62.29;101497.06;105232;1254;60482;-60
2024/01/28 01:31:26;;;;;;;12.50;5.70;;;;;;;4.10;62.41;101500.42;105369;1258;62535;-59
2024/01/28 01:33:54;;;;;;;13.80;6.80;;;;;;;4.08;62.45;101497.37;105518;1257;60531;-60
2024/01/28 01:36:21;;;;;;;13.00;6.10;;;;;;;4.11;62.39;101500.42;105351;1256;60360;-59
2024/01/28 01:38:49;;;;;;;13.40;6.40;;;;;;;4.14;62.06;101505.32;105528;1252;64924;-60
2024/01/28 01:41:17;;;;;;;15.30;6.10;;;;;;;4.15;62.22;101512.77;107023;1252;61394;-60
2024/01/28 01:43:45;;;;;;;12.30;6.30;;;;;;;4.12;62.35;101513.21;105643;1254;63737;-60
2024/01/28 01:46:12;;;;;;;32.40;6.90;;;;;;;4.09;62.30;101515.57;105445;1254;61126;-61
2024/01/28 01:48:40;;;;;;;13.60;6.40;;;;;;;4.13;62.29;101519.45;105455;1251;60544;-59
2024/01/28 01:51:08;;;;;;;13.40;5.90;;;;;;;4.18;62.21;101517.89;105367;1257;64969;-59
2024/01/28 01:53:36;;;;;;;14.40;6.00;;;;;;;4.19;62.22;101520.98;105482;1257;61778;-59
2024/01/28 01:56:04;;;;;;;12.60;5.80;;;;;;;4.18;62.19;101524.13;105299;1254;63782;-58
2024/01/28 01:58:32;;;;;;;14.20;6.30;;;;;;;4.15;62.16;101525.95;105693;1254;61262;-58
2024/01/28 02:01:01;;;;;;;15.90;7.20;;;;;;;4.15;62.13;101529.81;105371;1257;60482;-58
2024/01/28 02:03:29;;;;;;;15.90;6.30;;;;;;;4.18;62.13;101534.36;105543;1257;65004;-59
2024/01/28 02:05:56;;;;;;;13.20;6.40;;;;;;;4.22;61.96;101538.56;105985;1256;62110;-58
2024/01/28 02:08:24;;;;;;;13.20;6.10;;;;;;;4.22;61.99;101540.30;105324;1254;63842;-59
2024/01/28 02:10:51;;;;;;;14.10;5.90;;;;;;;4.20;62.12;101545.42;105305;1255;60856;-59
2024/01/28 02:13:19;;;;;;;14.30;6.50;;;;;;;4.17;61.94;101545.36;105396;1257;61238;-60
2024/01/28 02:15:47;;;;;;;12.40;5.60;;;;;;;4.17;61.83;101544.83;105303;1254;64977;-59
2024/01/28 02:18:14;;;;;;;15.80;6.10;;;;;;;4.20;61.81;101549.44;105366;1257;60381;-59
2024/01/28 02:20:42;;;;;;;12.60;5.50;;;;;;;4.21;61.93;101552.70;106356;1251;63668;-59
2024/01/28 02:23:10;;;;;;;15.20;5.40;;;;;;;4.21;62.15;101556.16;105459;1252;60673;-59
2024/01/28 02:25:37;;;;;;;11.80;5.10;;;;;;;4.17;62.10;101556.30;105528;1251;60564;-58
2024/01/28 02:28:05;;;;;;;15.70;8.30;;;;;;;4.16;62.08;101558.76;107411;1256;65384;-57
2024/01/28 02:30:35;;;;;;;13.30;5.70;;;;;;;4.17;61.89;101562.38;105673;1251;64373;-59
2024/01/28 02:33:03;;;;;;;14.90;6.70;;;;;;;4.17;61.89;101563.23;105858;1254;63724;-55
2024/01/28 02:35:31;;;;;;;12.20;5.40;;;;;;;4.14;61.88;101567.67;105514;1254;60965;-61
2024/01/28 02:37:58;;;;;;;15.00;5.80;;;;;;;4.11;61.97;101571.59;105402;1251;60675;-60
2024/01/28 02:40:26;;;;;;;13.40;6.20;;;;;;;4.09;62.15;101572.04;106786;1251;65101;-60
2024/01/28 02:42:53;;;;;;;15.80;6.50;;;;;;;4.10;62.11;101572.67;105701;1251;61374;-61
2024/01/28 02:45:21;;;;;;;13.10;5.50;;;;;;;4.13;62.07;101577.28;105400;1254;63726;-59
2024/01/28 02:47:49;;;;;;;15.40;6.60;;;;;;;4.14;62.12;101576.55;105539;1256;61227;-56
2024/01/28 02:50:17;;;;;;;15.50;6.40;;;;;;;4.12;62.19;101572.45;105518;1254;60444;-58
2024/01/28 02:52:45;;;;;;;12.90;6.40;;;;;;;4.08;62.30;101576.21;105460;1251;64931;-60
2024/01/28 02:55:12;;;;;;;15.30;6.10;;;;;;;4.05;62.31;101581.02;105499;1251;61347;-60
2024/01/28 02:57:40;;;;;;;16.10;6.40;;;;;;;4.07;62.26;101583.20;105660;1254;63689;-58
2024/01/28 03:00:08;;;;;;;13.20;5.30;;;;;;;4.12;62.23;101584.09;105442;1254;60497;-60
2024/01/28 03:02:37;;;;;;;13.70;7.00;;;;;;;4.10;62.18;101587.42;105698;1251;60555;-57
2024/01/28 03:05:05;;;;;;;15.10;5.80;;;;;;;4.06;62.26;101592.61;105700;1251;65914;-59
2024/01/28 03:07:33;;;;;;;13.40;6.20;;;;;;;4.03;62.35;101596.87;105768;1251;60658;-59
2024/01/28 03:10:01;;;;;;;15.70;7.10;;;;;;;4.07;62.16;101600.73;105355;1253;64292;-57
2024/01/28 03:12:28;;;;;;;15.10;6.70;;;;;;;4.11;62.21;101604.44;105438;1257;60547;-56
2024/01/28 03:14:56;;;;;;;16.00;6.10;;;;;;;4.09;62.26;101603.97;105411;1257;60527;-57
2024/01/28 03:17:24;;;;;;;14.80;6.40;;;;;;;4.08;62.40;101605.23;109268;1251;64924;-59
2024/01/28 03:19:51;;;;;;;14.60;7.40;;;;;;;4.06;62.35;101605.28;106065;1251;61347;-59
2024/01/28 03:22:19;;;;;;;15.60;7.10;;;;;;;4.09;62.37;101612.48;105261;1258;64176;-59
2024/01/28 03:24:48;;;;;;;18.80;6.40;;;;;;;4.12;62.21;101614.29;105358;1251;60504;-60
2024/01/28 03:27:16;;;;;;;13.50;6.80;;;;;;;4.13;62.31;101619.46;105544;1253;59273;-60
2024/01/28 03:29:43;;;;;;;16.40;6.70;;;;;;;4.12;62.31;101622.47;105517;1251;63723;-59
2024/01/28 03:32:11;;;;;;;18.70;5.20;;;;;;;4.08;62.43;101625.89;105485;1256;60403;-58
2024/01/28 03:34:38;;;;;;;15.80;7.20;;;;;;;4.04;62.37;101634.69;105417;1251;63701;-58
2024/01/28 03:37:06;;;;;;;21.20;8.50;;;;;;;4.06;62.37;101636.89;105344;1251;60633;-58
2024/01/28 03:39:34;;;;;;;17.40;6.90;;;;;;;4.09;62.47;101637.98;105918;1251;60382;-61
2024/01/28 03:42:02;;;;;;;21.40;8.10;;;;;;;4.04;62.63;101641.64;105439;1256;64872;-57
2024/01/28 03:44:29;;;;;;;17.60;8.90;;;;;;;3.98;62.64;101640.80;105389;1257;60651;-60
2024/01/28 03:46:57;;;;;;;21.50;8.30;;;;;;;3.94;62.90;101645.98;105339;1251;62526;-58
2024/01/28 03:49:24;;;;;;;21.50;7.40;;;;;;;3.99;62.86;101649.80;105583;1257;60552;-59
2024/01/28 03:51:52;;;;;;;18.90;8.40;;;;;;;4.01;62.90;101653.04;105371;1251;60701;-62
2024/01/28 03:54:19;;;;;;;15.40;6.80;;;;;;;3.96;62.93;101656.65;105346;1251;64915;-58
2024/01/28 03:56:47;;;;;;;16.10;7.10;;;;;;;3.95;63.06;101662.96;105312;1257;61795;-58
2024/01/28 03:59:15;;;;;;;20.20;10.10;;;;;;;3.91;63.16;101666.55;105437;1257;64200;-59
2024/01/28 04:01:42;;;;;;;16.00;7.70;;;;;;;3.92;63.21;101666.68;105249;1252;60552;-59
2024/01/28 04:04:10;;;;;;;19.70;7.10;;;;;;;3.98;63.04;101666.48;105727;1251;60624;-59
2024/01/28 04:06:43;;;;;;;15.90;6.10;;;;;;;4.01;63.07;101673.19;105509;1251;63632;-60
2024/01/28 04:09:12;;;;;;;18.50;8.50;;;;;;;4.01;63.12;101676.48;105704;1251;61390;-59
2024/01/28 04:11:39;;;;;;;18.40;8.00;;;;;;;3.96;63.10;101677.48;105685;1254;64245;-56
2024/01/28 04:14:07;;;;;;;14.40;6.80;;;;;;;3.96;63.07;101682.36;105335;1256;60427;-57
2024/01/28 04:16:34;;;;;;;16.30;7.60;;;;;;;3.99;63.08;101687.65;105805;1256;60446;-60
2024/01/28 04:19:02;;;;;;;21.30;10.10;;;;;;;4.02;63.11;101692.73;105486;1257;64905;-59
2024/01/28 04:21:32;;;;;;;18.70;7.60;;;;;;;4.04;63.09;101694.44;105435;1257;61537;-59
2024/01/28 04:24:00;;;;;;;18.30;7.60;;;;;;;4.02;63.18;101695.19;106121;1253;63759;-58
2024/01/28 04:26:28;;;;;;;21.90;7.60;;;;;;;4.00;63.12;101699.25;105871;1255;60568;-57
2024/01/28 04:28:56;;;;;;;16.90;8.70;;;;;;;3.96;63.14;101704.94;105538;1254;60435;-59
2024/01/28 04:31:26;;;;;;;19.70;8.90;;;;;;;3.96;63.11;101705.45;105307;1257;65400;-59
2024/01/28 04:33:54;;;;;;;23.00;8.10;;;;;;;4.00;62.98;101710.89;106210;1251;61870;-59
2024/01/28 04:36:22;;;;;;;16.70;7.20;;;;;;;3.99;63.04;101715.95;105998;1254;63757;-60
2024/01/28 04:38:49;;;;;;;19.30;8.70;;;;;;;3.96;63.14;101716.90;105463;1254;60559;-59
2024/01/28 04:41:17;;;;;;;23.40;9.40;;;;;;;3.93;63.19;101720.98;105237;1251;60341;-58
2024/01/28 04:43:45;;;;;;;19.40;10.10;;;;;;;3.92;63.31;101721.38;106375;1253;65253;-58
2024/01/28 04:46:16;;;;;;;23.50;9.10;;;;;;;3.96;63.15;101723.86;105796;1251;61504;-59
2024/01/28 04:48:45;;;;;;;20.90;8.50;;;;;;;4.02;63.01;101728.38;105601;1253;63713;-59
2024/01/28 04:51:12;;;;;;;18.30;7.10;;;;;;;4.04;63.17;101734.39;105621;1254;60587;-60
2024/01/28 04:53:40;;;;;;;20.40;9.10;;;;;;;4.04;63.22;101735.41;105407;1251;60579;-59
2024/01/28 04:56:10;;;;;;;19.10;8.90;;;;;;;4.04;63.14;101735.24;106349;1251;64920;-59
2024/01/28 04:58:38;;;;;;;19.80;7.90;;;;;;;4.06;63.04;101735.71;105727;1251;61369;-59
2024/01/28 05:01:05;;;;;;;19.20;8.10;;;;;;;4.11;62.87;101735.89;105632;1256;63669;-59
2024/01/28 05:03:33;;;;;;;21.90;7.50;;;;;;;4.15;62.66;101740.61;105732;1257;60836;-59
2024/01/28 05:06:04;;;;;;;17.50;7.40;;;;;;;4.18;62.75;101742.45;105262;1251;60420;-58
2024/01/28 05:08:32;;;;;;;14.90;7.50;;;;;;;4.18;62.78;101740.87;105712;1256;67339;-57
2024/01/28 05:11:00;;;;;;;19.00;9.20;;;;;;;4.16;62.66;101744.77;105241;1257;61500;-59
2024/01/28 05:13:27;;;;;;;19.90;8.50;;;;;;;4.16;62.55;101753.78;105424;1251;62465;-58
2024/01/28 05:15:55;;;;;;;20.20;6.90;;;;;;;4.19;62.49;101756.67;105432;1254;60523;-58
2024/01/28 05:18:22;;;;;;;22.30;10.70;;;;;;;4.22;62.37;101758.64;105962;1257;60344;-59
2024/01/28 05:20:51;;;;;;;16.80;8.50;;;;;;;4.22;62.25;101759.16;105395;1251;64853;-55
2024/01/28 05:23:19;;;;;;;17.20;7.60;;;;;;;4.22;62.43;101762.83;107687;1251;61410;-56
2024/01/28 05:25:47;;;;;;;18.40;8.60;;;;;;;4.21;62.47;101767.55;105383;1254;63641;-58
2024/01/28 05:28:16;;;;;;;22.70;8.90;;;;;;;4.14;62.47;101772.27;105448;1251;60438;-59
2024/01/28 05:30:44;;;;;;;17.30;8.60;;;;;;;4.08;62.55;101776.96;106101;1251;60434;-57
2024/01/28 05:33:12;;;;;;;20.90;9.30;;;;;;;4.10;62.63;101783.84;105593;1251;63826;-58
2024/01/28 05:35:41;;;;;;;23.30;10.30;;;;;;;4.11;62.63;101789.38;105311;1251;61367;-59
2024/01/28 05:38:09;;;;;;;14.80;7.70;;;;;;;4.10;62.71;101792.37;105430;1254;63742;-59
2024/01/28 05:40:36;;;;;;;21.90;8.80;;;;;;;4.05;62.77;101792.00;105677;1251;60523;-61
2024/01/28 05:43:04;;;;;;;21.30;8.60;;;;;;;3.99;63.04;101795.13;105370;1256;60450;-58
2024/01/28 05:45:32;;;;;;;21.50;10.20;;;;;;;3.98;63.21;101797.59;105282;1257;64952;-58
2024/01/28 05:48:01;;;;;;;16.90;7.20;;;;;;;4.00;63.21;101804.84;105844;1251;61335;-57
2024/01/28 05:50:30;;;;;;;19.60;8.80;;;;;;;4.01;63.18;101809.83;106006;1254;62523;-58
2024/01/28 05:52:57;;;;;;;20.90;9.00;;;;;;;3.98;63.13;101816.50;105865;1251;60510;-58
2024/01/28 05:55:25;;;;;;;17.50;8.40;;;;;;;3.94;63.32;101819.23;105165;1257;307024;-58
2024/01/28 05:59:31;;;;;;;15.70;7.70;;;;;;;3.58;64.67;101826.67;102092;1297;601107;-58
2024/01/28 06:01:59;;;;;;;23.30;9.40;;;;;;;3.89;63.72;101829.98;105712;1269;59453;-58
2024/01/28 06:04:26;;;;;;;22.00;9.10;;;;;;;3.91;63.66;101833.71;104504;1266;59389;-57
2024/01/28 06:06:54;;;;;;;16.20;7.80;;;;;;;3.97;63.58;101838.42;104192;1266;62056;-57
2024/01/28 06:09:22;;;;;;;16.00;7.40;;;;;;;4.04;63.38;101842.55;104717;1271;60098;-58
2024/01/28 06:11:50;;;;;;;21.30;10.50;;;;;;;4.10;63.31;101848.80;104243;1269;62584;-57
2024/01/28 06:14:17;;;;;;;21.90;8.80;;;;;;;4.14;63.22;101853.23;104201;1264;232836;-59
2024/01/28 06:16:45;;;;;;;21.30;8.50;;;;;;;4.12;63.18;101857.10;104449;1265;59237;-58
2024/01/28 06:19:12;;;;;;;23.10;8.20;;;;;;;4.08;63.12;101862.60;104348;1264;63436;-59
2024/01/28 06:21:41;;;;;;;13.00;7.10;;;;;;;4.05;63.18;101861.64;104430;1265;61977;-59
2024/01/28 06:24:08;;;;;;;17.00;7.50;;;;;;;4.08;63.07;101867.62;104696;1267;64262;-59
2024/01/28 06:26:38;;;;;;;18.30;8.30;;;;;;;4.15;63.01;101872.81;104577;1265;59769;-60
2024/01/28 06:29:06;;;;;;;16.10;7.90;;;;;;;4.17;62.91;101871.17;104793;1264;59674;-59
2024/01/28 06:31:33;;;;;;;17.30;8.20;;;;;;;4.14;62.89;101873.36;104267;1266;64217;-60
2024/01/28 06:34:01;;;;;;;20.20;7.10;;;;;;;4.09;62.98;101876.44;104762;1263;61404;-56
2024/01/28 06:36:29;;;;;;;20.40;9.00;;;;;;;4.06;63.03;101883.48;104819;1266;62634;-56
2024/01/28 06:38:57;;;;;;;26.00;11.00;;;;;;;4.09;63.09;101888.44;104376;1270;59716;-55
2024/01/28 06:41:25;;;;;;;18.90;8.90;;;;;;;4.15;62.99;101894.15;104933;1267;59653;-55
2024/01/28 06:43:53;;;;;;;18.10;8.30;;;;;;;4.21;62.89;101896.23;106549;1269;64087;-59
2024/01/28 06:46:24;;;;;;;20.80;9.80;;;;;;;4.23;62.83;101896.89;104432;1265;71917;-60
2024/01/28 06:48:52;;;;;;;18.80;6.90;;;;;;;4.22;62.81;101897.58;105157;1264;64275;-58
2024/01/28 06:51:19;;;;;;;23.50;11.30;;;;;;;4.21;62.77;101898.86;104663;1266;61279;-57
2024/01/28 06:53:48;;;;;;;18.00;7.80;;;;;;;4.21;62.65;101901.45;104540;1265;59653;-60
2024/01/28 06:56:15;;;;;;;22.20;10.40;;;;;;;4.25;62.50;101901.52;104369;1266;62900;-60
2024/01/28 06:58:43;;;;;;;20.60;8.10;;;;;;;4.28;62.51;101906.47;104283;1266;61756;-58
2024/01/28 07:01:11;;;;;;;20.90;7.40;;;;;;;4.27;62.48;101908.76;105288;1265;62531;-58
2024/01/28 07:03:40;;;;;;;17.50;7.70;;;;;;;4.24;62.41;101913.69;106228;1266;59692;-59
2024/01/28 07:06:08;;;;;;;19.20;9.00;;;;;;;4.24;62.40;101915.62;104341;1270;59799;-57
2024/01/28 07:08:35;;;;;;;21.30;9.30;;;;;;;4.28;62.25;101917.41;104207;1268;64213;-55
2024/01/28 07:11:04;;;;;;;20.90;10.20;;;;;;;4.33;62.17;101919.86;104209;1263;61415;-58
2024/01/28 07:13:31;;;;;;;17.80;9.60;;;;;;;4.34;62.22;101918.80;104605;1268;63703;-57
2024/01/28 07:15:59;;;;;;;16.50;7.50;;;;;;;4.34;62.32;101924.20;104219;1266;59752;-57
2024/01/28 07:18:29;;;;;;;16.20;8.10;;;;;;;4.32;62.26;101926.35;104286;1266;60279;-60
2024/01/28 07:20:57;;;;;;;19.70;9.70;;;;;;;4.33;62.13;101931.88;104420;1269;64832;-60
2024/01/28 07:23:25;;;;;;;19.20;8.10;;;;;;;4.38;61.96;101936.59;104321;1269;70415;-58
2024/01/28 07:25:53;;;;;;;18.30;10.60;;;;;;;4.40;61.92;101935.84;104351;1264;63899;-59
2024/01/28 07:28:20;;;;;;;18.60;8.40;;;;;;;4.38;61.85;101938.48;105541;1265;59870;-61
2024/01/28 07:30:48;;;;;;;18.20;8.00;;;;;;;4.37;61.88;101947.40;105515;1257;59579;-61
2024/01/28 07:33:17;;;;;;;20.20;10.50;;;;;;;4.33;61.84;101947.85;104770;1262;64129;-60
2024/01/28 07:35:47;;;;;;;20.20;8.60;;;;;;;4.38;61.61;101955.68;104889;1253;72530;-58
2024/01/28 07:38:15;;;;;;;16.80;9.40;;;;;;;4.39;61.65;101957.77;105017;1252;63810;-59
2024/01/28 07:40:42;;;;;;;19.20;7.60;;;;;;;4.38;61.74;101961.26;105078;1253;60022;-59
2024/01/28 07:43:10;;;;;;;17.20;7.90;;;;;;;4.36;61.82;101961.49;104939;1253;59657;-58
2024/01/28 07:45:38;;;;;;;19.20;9.70;;;;;;;4.33;61.80;101966.63;105016;1253;71342;-58
2024/01/28 07:48:06;;;;;;;21.00;11.20;;;;;;;4.35;61.70;101968.29;105052;1257;70731;-58
2024/01/28 07:50:34;;;;;;;13.10;7.30;;;;;;;4.40;61.66;101967.61;109145;1256;63766;-57
2024/01/28 07:53:01;;;;;;;17.20;8.20;;;;;;;4.42;61.71;101967.73;108192;1254;59781;-57
2024/01/28 07:55:29;;;;;;;19.60;9.20;;;;;;;4.45;61.65;101969.75;105737;1258;59641;-58
2024/01/28 07:57:57;;;;;;;17.40;9.60;;;;;;;4.44;61.46;101970.65;105023;1253;64180;-58
2024/01/28 08:00:25;;;;;;;19.10;8.70;;;;;;;4.47;61.37;101975.59;107423;1256;61415;-56
2024/01/28 08:02:54;;;;;;;20.40;9.20;;;;;;;4.52;61.19;101973.52;105772;1255;64374;-56
2024/01/28 08:05:23;;;;;;;17.30;7.70;;;;;;;4.53;60.89;101975.59;106024;1254;60039;-57
2024/01/28 08:07:52;;;;;;;18.00;8.30;;;;;;;4.50;60.92;101979.68;105321;1253;59784;-59
2024/01/28 08:10:20;;;;;;;16.60;6.70;;;;;;;4.44;61.03;101986.63;105989;1253;62906;-60
2024/01/28 08:12:47;;;;;;;17.40;7.60;;;;;;;4.42;61.02;101992.60;105133;1253;62041;-58
2024/01/28 08:15:16;;;;;;;16.50;7.90;;;;;;;4.45;60.95;101993.56;105201;1253;63779;-58
2024/01/28 08:17:49;;;;;;;20.60;9.00;;;;;;;4.45;60.85;101995.30;104931;1253;59787;-59
2024/01/28 08:20:17;;;;;;;15.30;7.90;;;;;;;4.43;60.92;102002.98;106573;1256;59669;-58
2024/01/28 08:22:47;;;;;;;16.00;9.10;;;;;;;4.40;61.02;102002.54;105952;1253;63079;-59
2024/01/28 08:25:14;;;;;;;14.50;7.70;;;;;;;4.38;60.92;102006.60;105168;1256;60314;-59
2024/01/28 08:27:44;;;;;;;19.00;7.30;;;;;;;4.41;60.84;102010.36;104938;1253;63839;-63
2024/01/28 08:30:12;;;;;;;21.60;9.30;;;;;;;4.42;60.80;102013.27;105060;1253;59623;-59
2024/01/28 08:32:40;;;;;;;17.90;8.00;;;;;;;4.41;60.83;102016.25;106202;1258;59500;-61
2024/01/28 08:35:08;;;;;;;21.40;8.70;;;;;;;4.36;60.91;102018.66;105070;1253;64113;-59
2024/01/28 08:37:36;;;;;;;18.30;9.80;;;;;;;4.36;60.90;102019.70;105192;1253;61435;-60
2024/01/28 08:40:07;;;;;;;19.80;9.30;;;;;;;4.38;60.83;102020.69;105704;1258;62484;-58
2024/01/28 08:42:35;;;;;;;16.70;7.20;;;;;;;4.38;60.75;102030.23;109190;1253;57651;-59
2024/01/28 08:45:02;;;;;;;19.90;8.20;;;;;;;4.35;60.85;102031.17;106565;1256;59743;-59
2024/01/28 08:47:30;;;;;;;19.50;8.60;;;;;;;4.28;60.81;102031.55;108951;1252;64554;-59
2024/01/28 08:49:59;;;;;;;20.60;8.70;;;;;;;4.31;60.85;102039.80;109006;1252;60117;-57
2024/01/28 08:52:27;;;;;;;20.00;10.10;;;;;;;4.37;60.80;102041.20;105746;1253;62731;-54
2024/01/28 08:54:54;;;;;;;17.60;7.40;;;;;;;4.38;60.55;102042.40;108136;1257;59854;-54
2024/01/28 08:57:22;;;;;;;18.10;7.60;;;;;;;4.39;60.48;102050.89;105259;1258;59718;-56
2024/01/28 08:59:50;;;;;;;18.90;9.30;;;;;;;4.36;60.61;102049.91;105221;1255;64576;-56
2024/01/28 09:02:17;;;;;;;18.20;7.00;;;;;;;4.34;60.71;102051.88;105187;1258;61658;-58
2024/01/28 09:04:45;;;;;;;18.10;9.50;;;;;;;4.37;60.62;102050.07;105137;1256;63735;-60
2024/01/28 09:07:13;;;;;;;20.80;8.40;;;;;;;4.39;60.46;102050.54;105256;1253;59708;-59
2024/01/28 09:09:41;;;;;;;16.40;8.30;;;;;;;4.37;60.50;102055.11;105318;1258;59750;-59
2024/01/28 09:12:09;;;;;;;18.90;8.00;;;;;;;4.35;60.59;102055.18;105450;1260;64053;-58
2024/01/28 09:14:37;;;;;;;22.80;9.00;;;;;;;4.31;60.71;102052.50;105818;1253;60459;-60
2024/01/28 09:17:05;;;;;;;18.50;7.30;;;;;;;4.33;60.74;102050.38;105321;1256;63689;-57
2024/01/28 09:19:33;;;;;;;17.90;8.10;;;;;;;4.38;60.64;102047.45;105207;1256;59694;-59
2024/01/28 09:22:00;;;;;;;16.60;7.50;;;;;;;4.40;60.76;102047.71;105245;1257;59610;-58
2024/01/28 09:24:28;;;;;;;24.30;9.80;;;;;;;4.38;60.74;102050.57;105939;1253;64842;-60
2024/01/28 09:26:58;;;;;;;22.80;9.20;;;;;;;4.28;60.74;102049.79;105186;1253;64199;-58
2024/01/28 09:29:27;;;;;;;16.30;9.30;;;;;;;4.31;60.77;102053.35;106550;1253;63721;-59
2024/01/28 09:31:59;;;;;;;16.80;8.70;;;;;;;4.37;60.82;102052.85;105218;1258;59761;-60
2024/01/28 09:34:28;;;;;;;18.70;9.40;;;;;;;4.37;60.74;102053.20;105223;1253;59842;-59
2024/01/28 09:36:56;;;;;;;22.30;10.70;;;;;;;4.36;60.70;102053.05;107533;1256;62975;-60
2024/01/28 09:39:24;;;;;;;21.10;9.40;;;;;;;4.30;60.77;102053.38;105187;1253;61404;-60
2024/01/28 09:42:00;;;;;;;22.60;9.20;;;;;;;4.32;60.71;102057.16;105643;1257;70897;-60
2024/01/28 09:44:27;;;;;;;19.90;9.10;;;;;;;4.31;60.72;102053.18;105164;1255;59985;-59
2024/01/28 09:46:55;;;;;;;16.00;9.00;;;;;;;4.29;60.76;102053.59;105209;1255;59540;-61
2024/01/28 09:49:22;;;;;;;20.90;7.50;;;;;;;4.27;60.92;102053.30;105701;1257;64085;-56
2024/01/28 09:51:51;;;;;;;14.20;7.80;;;;;;;4.26;60.88;102052.44;105791;1253;61376;-60
2024/01/28 09:54:18;;;;;;;16.80;7.80;;;;;;;4.30;60.71;102054.94;107466;1255;62567;-60
2024/01/28 09:56:46;;;;;;;22.20;9.30;;;;;;;4.32;60.58;102058.02;105088;1253;60925;-63
2024/01/28 09:59:16;;;;;;;17.00;7.90;;;;;;;4.26;60.61;102061.98;105546;1256;62017;-58
2024/01/28 10:01:44;;;;;;;18.20;10.20;;;;;;;4.27;60.75;102061.11;105193;1258;64118;-59
2024/01/28 10:04:12;;;;;;;19.00;9.70;;;;;;;4.23;60.74;102060.69;105249;1258;61472;-61
2024/01/28 10:06:39;;;;;;;18.80;8.50;;;;;;;4.25;60.54;102062.39;105290;1254;64288;-59
2024/01/28 10:09:08;;;;;;;17.70;8.40;;;;;;;4.27;60.47;102067.55;105179;1258;60490;-60
2024/01/28 10:11:35;;;;;;;21.70;9.60;;;;;;;4.25;60.53;102063.95;105036;1253;59568;-60
2024/01/28 10:14:03;;;;;;;19.10;8.30;;;;;;;4.25;60.51;102068.28;105098;1253;64880;-60
2024/01/28 10:16:32;;;;;;;20.20;9.40;;;;;;;4.25;60.48;102071.40;105030;1258;60451;-57
2024/01/28 10:18:59;;;;;;;20.50;8.60;;;;;;;4.32;60.29;102071.94;105158;1258;66048;-59
2024/01/28 10:21:27;;;;;;;16.10;5.90;;;;;;;4.32;60.15;102075.75;104895;1253;60527;-59
2024/01/28 10:23:55;;;;;;;18.30;7.70;;;;;;;4.31;60.12;102078.39;105129;1253;60724;-61
2024/01/28 10:26:22;;;;;;;22.70;8.30;;;;;;;4.28;60.25;102078.45;105039;1253;65553;-61
2024/01/28 10:28:51;;;;;;;14.60;8.10;;;;;;;4.29;60.08;102081.39;104802;1253;61422;-63
2024/01/28 10:31:22;;;;;;;17.40;8.00;;;;;;;4.34;59.96;102085.06;105072;1258;62448;-56
2024/01/28 10:33:50;;;;;;;17.40;8.50;;;;;;;4.31;59.98;102080.98;105070;1254;60584;-58
2024/01/28 10:36:18;;;;;;;19.20;9.00;;;;;;;4.25;59.93;102085.14;105355;1253;60426;-60
2024/01/28 10:38:46;;;;;;;20.80;10.10;;;;;;;4.20;59.90;102085.45;105188;1253;64929;-56
2024/01/28 10:41:15;;;;;;;21.40;10.20;;;;;;;4.22;59.94;102086.27;105149;1254;61802;-56
2024/01/28 10:44:03;;;;;;;17.30;9.00;;;;;;;4.20;59.95;102088.58;105649;1256;63713;-58
2024/01/28 10:46:41;;;;;;;20.10;8.50;;;;;;;4.23;60.01;102091.61;105602;1253;60554;-59
2024/01/28 10:49:10;;;;;;;21.90;9.80;;;;;;;4.20;60.05;102092.38;105437;1254;60683;-59
2024/01/28 10:51:39;;;;;;;14.60;8.10;;;;;;;4.22;60.05;102097.54;105152;1253;64915;-60
2024/01/28 10:54:07;;;;;;;20.80;9.70;;;;;;;4.24;59.90;102100.45;105270;1253;61319;-61
2024/01/28 10:56:36;;;;;;;18.40;10.00;;;;;;;4.28;59.81;102101.91;106112;1256;63693;-57
2024/01/28 10:59:03;;;;;;;19.70;8.10;;;;;;;4.30;59.87;102103.77;105350;1255;60454;-57
2024/01/28 11:01:31;;;;;;;20.60;8.90;;;;;;;4.30;59.95;102105.84;104757;1258;60368;-58
2024/01/28 11:03:58;;;;;;;18.00;8.10;;;;;;;4.30;59.92;102106.91;104839;1255;65006;-59
2024/01/28 11:06:27;;;;;;;17.20;7.70;;;;;;;4.34;59.70;102113.74;104704;1256;61414;-58
2024/01/28 11:08:58;;;;;;;19.60;8.40;;;;;;;4.40;59.51;102112.38;104970;1257;63717;-60
2024/01/28 11:11:26;;;;;;;20.20;8.80;;;;;;;4.40;59.43;102117.08;105039;1253;60542;-60
2024/01/28 11:13:55;;;;;;;18.40;7.70;;;;;;;4.35;59.55;102115.27;105743;1256;62472;-60
2024/01/28 11:16:23;;;;;;;21.90;10.90;;;;;;;4.27;59.50;102115.65;105766;1256;65887;-62
2024/01/28 11:19:00;;;;;;;17.60;7.30;;;;;;;4.22;59.44;102114.40;104982;1255;61906;-59
2024/01/28 11:21:31;;;;;;;21.00;9.00;;;;;;;4.25;59.36;102116.24;106439;1254;75300;-59